PWSweather.com
Personal Weather Stations
Station Observations
PENICUIKWS
PenicuikGB

PenicuikGB

Lat: 55.830932, Lon: -3.224533000000065

Elevation: 166

Station Type: Fine Offset

http://weather.penicuik.org

High Low Average
Temperature 63.7°F17.6°C 42.6°F5.9°C 49.5°F9.7°C
Dew Point 48.4°F9.1°C 39.9°F4.4°C 43.6°F6.4°C
Winds 7.6 mph 12.2 kmh 0.3 mph 0.5 kmh 3.0 mph S4.8 kmh S
Wind Gusts 13.0 mph20.9 kmh 1.6 mph2.6 kmh 5.0 mph8.0 kmh
Humidity 97% 50% 82%
Pressure 29.83 in1010.2 mb 29.32 in992.9 mb -
Precipitation 0.28 in7.1 mm - -
Hour Temp Dew Point Humidity Winds Wind Gusts Pressure Precip Precip Rate Daily Precip Total
12:00 AM 45.1°F7.3°C 43.5°F6.4°C 94% 0.7 mph SSW1.1 kmh SSW 2.2 mph3.5 kmh 29.33 in993.2 mb 0.05 in1.3 mm 0.00 in0.0 mm 0.05 in1.3 mm
12:15 AM 45.0°F7.2°C 43.3°F6.3°C 94% 0.9 mph NNW1.4 kmh NNW 1.6 mph2.6 kmh 29.32 in992.9 mb 0.07 in1.8 mm 0.08 in2.0 mm 0.07 in1.8 mm
12:30 AM 45.1°F7.3°C 43.5°F6.4°C 94% 0.6 mph N1.0 kmh N 2.2 mph3.5 kmh 29.32 in992.9 mb 0.07 in1.8 mm 0.00 in0.0 mm 0.08 in2.0 mm
12:45 AM 45.0°F7.2°C 43.6°F6.4°C 95% 1.9 mph NE3.1 kmh NE 3.8 mph6.1 kmh 29.32 in992.9 mb 0.07 in1.8 mm 0.00 in0.0 mm 0.09 in2.3 mm
01:00 AM 44.4°F6.9°C 43.4°F6.3°C 96% 1.2 mph NNE1.9 kmh NNE 2.2 mph3.5 kmh 29.32 in992.9 mb 0.05 in1.3 mm 0.00 in0.0 mm 0.09 in2.3 mm
01:15 AM 44.6°F7.0°C 43.3°F6.3°C 95% 1.9 mph NE3.1 kmh NE 3.1 mph5.0 kmh 29.33 in993.2 mb 0.04 in1.0 mm 0.00 in0.0 mm 0.11 in2.8 mm
01:30 AM 44.1°F6.7°C 43.0°F6.1°C 96% 1.3 mph N2.1 kmh N 2.2 mph3.5 kmh 29.33 in993.2 mb 0.04 in1.0 mm 0.00 in0.0 mm 0.12 in3.0 mm
01:45 AM 44.1°F6.7°C 43.3°F6.3°C 97% 1.4 mph NNE2.3 kmh NNE 3.1 mph5.0 kmh 29.33 in993.2 mb 0.04 in1.0 mm 0.00 in0.0 mm 0.13 in3.3 mm
02:00 AM 43.9°F6.6°C 43.1°F6.2°C 97% 2.0 mph SSW3.2 kmh SSW 3.1 mph5.0 kmh 29.34 in993.6 mb 0.05 in1.3 mm 0.01 in0.3 mm 0.14 in3.6 mm
02:15 AM 43.5°F6.4°C 42.7°F5.9°C 97% 2.0 mph NNE3.2 kmh NNE 3.8 mph6.1 kmh 29.33 in993.2 mb 0.05 in1.3 mm 0.00 in0.0 mm 0.15 in3.8 mm
02:30 AM 43.3°F6.3°C 42.5°F5.8°C 97% 1.4 mph ENE2.3 kmh ENE 3.1 mph5.0 kmh 29.33 in993.2 mb 0.04 in1.0 mm 0.00 in0.0 mm 0.17 in4.3 mm
02:45 AM 43.2°F6.2°C 42.4°F5.8°C 97% 1.7 mph N2.7 kmh N 3.8 mph6.1 kmh 29.33 in993.2 mb 0.05 in1.3 mm 0.04 in1.0 mm 0.18 in4.6 mm
02:46 AM 43.2°F6.2°C 42.4°F5.8°C 97% 2.1 mph NNE3.4 kmh NNE 3.8 mph6.1 kmh 29.34 in993.6 mb 0.05 in1.3 mm 0.00 in0.0 mm 0.18 in4.6 mm
03:15 AM 43.0°F6.1°C 42.2°F5.7°C 97% 1.6 mph NE2.6 kmh NE 2.2 mph3.5 kmh 29.33 in993.2 mb 0.04 in1.0 mm 0.00 in0.0 mm 0.19 in4.8 mm
03:16 AM 42.8°F6.0°C 42.0°F5.6°C 97% 1.6 mph NE2.6 kmh NE 2.2 mph3.5 kmh 29.32 in992.9 mb 0.04 in1.0 mm 0.00 in0.0 mm 0.19 in4.8 mm
03:30 AM 42.8°F6.0°C 42.0°F5.6°C 97% 1.2 mph SE1.9 kmh SE 2.2 mph3.5 kmh 29.32 in992.9 mb 0.02 in0.5 mm 0.00 in0.0 mm 0.19 in4.8 mm
03:45 AM 42.6°F5.9°C 41.8°F5.4°C 97% 2.0 mph SE3.2 kmh SE 3.1 mph5.0 kmh 29.34 in993.6 mb 0.01 in0.3 mm 0.00 in0.0 mm 0.19 in4.8 mm
04:00 AM 42.6°F5.9°C 41.8°F5.4°C 97% 1.7 mph SE2.7 kmh SE 3.1 mph5.0 kmh 29.33 in993.2 mb 0.00 in0.0 mm 0.00 in0.0 mm 0.19 in4.8 mm
04:15 AM 42.8°F6.0°C 41.7°F5.4°C 96% 2.0 mph W3.2 kmh W 3.8 mph6.1 kmh 29.33 in993.2 mb 0.00 in0.0 mm 0.00 in0.0 mm 0.19 in4.8 mm
04:30 AM 42.8°F6.0°C 41.7°F5.4°C 96% 2.2 mph SSW3.5 kmh SSW 3.1 mph5.0 kmh 29.33 in993.2 mb 0.00 in0.0 mm 0.00 in0.0 mm 0.19 in4.8 mm
05:00 AM 43.3°F6.3°C 42.3°F5.7°C 96% 4.0 mph SW6.4 kmh SW 8.3 mph13.4 kmh 29.33 in993.2 mb 0.00 in0.0 mm 0.00 in0.0 mm 0.19 in4.8 mm
05:15 AM 43.5°F6.4°C 42.5°F5.8°C 96% 2.3 mph NW3.7 kmh NW 4.5 mph7.2 kmh 29.34 in993.6 mb 0.00 in0.0 mm 0.00 in0.0 mm 0.19 in4.8 mm
05:30 AM 43.5°F6.4°C 42.5°F5.8°C 96% 2.5 mph SSW4.0 kmh SSW 3.8 mph6.1 kmh 29.34 in993.6 mb 0.00 in0.0 mm 0.00 in0.0 mm 0.19 in4.8 mm
05:45 AM 43.5°F6.4°C 42.2°F5.7°C 95% 3.1 mph WNW5.0 kmh WNW 6.0 mph9.7 kmh 29.34 in993.6 mb 0.00 in0.0 mm 0.00 in0.0 mm 0.19 in4.8 mm
06:00 AM 43.5°F6.4°C 42.2°F5.7°C 95% 3.1 mph S5.0 kmh S 6.9 mph11.1 kmh 29.34 in993.6 mb 0.01 in0.3 mm 0.01 in0.3 mm 0.20 in5.1 mm
06:15 AM 43.7°F6.5°C 42.1°F5.6°C 94% 3.0 mph SSE4.8 kmh SSE 4.5 mph7.2 kmh 29.34 in993.6 mb 0.01 in0.3 mm 0.00 in0.0 mm 0.20 in5.1 mm
06:30 AM 44.1°F6.7°C 42.2°F5.7°C 93% 2.7 mph WSW4.3 kmh WSW 3.8 mph6.1 kmh 29.34 in993.6 mb 0.01 in0.3 mm 0.00 in0.0 mm 0.20 in5.1 mm
07:00 AM 44.8°F7.1°C 42.3°F5.7°C 91% 4.3 mph S6.9 kmh S 8.3 mph13.4 kmh 29.36 in994.2 mb 0.00 in0.0 mm 0.00 in0.0 mm 0.20 in5.1 mm
07:15 AM 45.3°F7.4°C 42.3°F5.7°C 89% 3.3 mph NW5.3 kmh NW 6.0 mph9.7 kmh 29.36 in994.2 mb 0.00 in0.0 mm 0.00 in0.0 mm 0.20 in5.1 mm
07:30 AM 45.9°F7.7°C 42.8°F6.0°C 89% 4.4 mph S7.1 kmh S 7.6 mph12.2 kmh 29.36 in994.2 mb 0.00 in0.0 mm 0.00 in0.0 mm 0.20 in5.1 mm
07:58 AM 47.5°F8.6°C 43.8°F6.6°C 87% 7.6 mph W12.2 kmh W 7.6 mph12.2 kmh 29.38 in994.9 mb 0.00 in0.0 mm 0.00 in0.0 mm 0.20 in5.1 mm
08:15 AM 48.0°F8.9°C 43.4°F6.3°C 84% 4.2 mph SW6.8 kmh SW 7.6 mph12.2 kmh 29.38 in994.9 mb 0.00 in0.0 mm 0.00 in0.0 mm 0.20 in5.1 mm
08:16 AM 48.0°F8.9°C 43.4°F6.3°C 84% 4.4 mph WSW7.1 kmh WSW 7.6 mph12.2 kmh 29.38 in994.9 mb 0.00 in0.0 mm 0.00 in0.0 mm 0.20 in5.1 mm
08:30 AM 48.9°F9.4°C 44.0°F6.7°C 83% 4.1 mph S6.6 kmh S 5.4 mph8.7 kmh 29.38 in994.9 mb 0.00 in0.0 mm 0.00 in0.0 mm 0.20 in5.1 mm
08:45 AM 50.4°F10.2°C 44.4°F6.9°C 80% 4.4 mph S7.1 kmh S 7.6 mph12.2 kmh 29.39 in995.3 mb 0.00 in0.0 mm 0.00 in0.0 mm 0.20 in5.1 mm
09:00 AM 52.5°F11.4°C 44.5°F6.9°C 74% 4.4 mph S7.1 kmh S 6.0 mph9.7 kmh 29.40 in995.6 mb 0.00 in0.0 mm 0.00 in0.0 mm 0.20 in5.1 mm
09:15 AM 53.8°F12.1°C 45.0°F7.2°C 72% 4.1 mph WSW6.6 kmh WSW 5.4 mph8.7 kmh 29.41 in995.9 mb 0.00 in0.0 mm 0.00 in0.0 mm 0.20 in5.1 mm
09:30 AM 55.6°F13.1°C 45.6°F7.6°C 69% 3.7 mph SE6.0 kmh SE 6.0 mph9.7 kmh 29.41 in995.9 mb 0.00 in0.0 mm 0.00 in0.0 mm 0.20 in5.1 mm
09:45 AM 54.3°F12.4°C 44.4°F6.9°C 69% 3.8 mph WSW6.1 kmh WSW 6.0 mph9.7 kmh 29.42 in996.3 mb 0.00 in0.0 mm 0.00 in0.0 mm 0.20 in5.1 mm
10:00 AM 52.9°F11.6°C 43.7°F6.5°C 71% 4.0 mph S6.4 kmh S 5.4 mph8.7 kmh 29.43 in996.6 mb 0.00 in0.0 mm 0.00 in0.0 mm 0.20 in5.1 mm
10:15 AM 54.7°F12.6°C 46.6°F8.1°C 74% 3.9 mph SW6.3 kmh SW 13.0 mph20.9 kmh 29.44 in997.0 mb 0.00 in0.0 mm 0.00 in0.0 mm 0.20 in5.1 mm
10:29 AM 58.6°F14.8°C 46.5°F8.1°C 64% 3.5 mph SW5.6 kmh SW 6.0 mph9.7 kmh 29.44 in997.0 mb 0.00 in0.0 mm 0.00 in0.0 mm 0.20 in5.1 mm
10:30 AM 58.6°F14.8°C 46.5°F8.1°C 64% 3.6 mph SW5.8 kmh SW 6.0 mph9.7 kmh 29.44 in997.0 mb 0.00 in0.0 mm 0.00 in0.0 mm 0.20 in5.1 mm
10:45 AM 58.3°F14.6°C 44.0°F6.7°C 59% 4.9 mph W7.9 kmh W 8.3 mph13.4 kmh 29.45 in997.3 mb 0.00 in0.0 mm 0.00 in0.0 mm 0.20 in5.1 mm
11:00 AM 58.3°F14.6°C 44.9°F7.2°C 61% 3.4 mph ENE5.5 kmh ENE 4.5 mph7.2 kmh 29.46 in997.6 mb 0.00 in0.0 mm 0.00 in0.0 mm 0.20 in5.1 mm
11:15 AM 56.8°F13.8°C 44.4°F6.9°C 63% 3.1 mph N5.0 kmh N 4.5 mph7.2 kmh 29.46 in997.6 mb 0.00 in0.0 mm 0.00 in0.0 mm 0.20 in5.1 mm
11:45 AM 60.8°F16.0°C 44.1°F6.7°C 54% 4.0 mph SE6.4 kmh SE 6.9 mph11.1 kmh 29.47 in998.0 mb 0.00 in0.0 mm 0.00 in0.0 mm 0.20 in5.1 mm
12:00 PM 61.2°F16.2°C 43.9°F6.6°C 53% 4.6 mph NW7.4 kmh NW 6.9 mph11.1 kmh 29.49 in998.6 mb 0.00 in0.0 mm 0.00 in0.0 mm 0.20 in5.1 mm
12:15 PM 61.2°F16.2°C 43.9°F6.6°C 53% 3.2 mph NNE5.1 kmh NNE 6.0 mph9.7 kmh 29.50 in999.0 mb 0.00 in0.0 mm 0.00 in0.0 mm 0.20 in5.1 mm
12:30 PM 63.7°F17.6°C 44.7°F7.1°C 50% 2.8 mph S4.5 kmh S 3.8 mph6.1 kmh 29.50 in999.0 mb 0.00 in0.0 mm 0.00 in0.0 mm 0.20 in5.1 mm
12:45 PM 61.0°F16.1°C 43.7°F6.5°C 53% 3.5 mph SSE5.6 kmh SSE 5.4 mph8.7 kmh 29.52 in999.7 mb 0.00 in0.0 mm 0.00 in0.0 mm 0.20 in5.1 mm
01:00 PM 63.7°F17.6°C 45.2°F7.3°C 51% 2.5 mph SSE4.0 kmh SSE 5.4 mph8.7 kmh 29.53 in1000.0 mb 0.00 in0.0 mm 0.00 in0.0 mm 0.20 in5.1 mm
01:15 PM 60.8°F16.0°C 45.0°F7.2°C 56% 2.9 mph N4.7 kmh N 5.4 mph8.7 kmh 29.53 in1000.0 mb 0.00 in0.0 mm 0.00 in0.0 mm 0.20 in5.1 mm
01:30 PM 59.5°F15.3°C 45.2°F7.3°C 59% 3.5 mph S5.6 kmh S 6.0 mph9.7 kmh 29.55 in1000.7 mb 0.00 in0.0 mm 0.00 in0.0 mm 0.20 in5.1 mm
01:45 PM 59.2°F15.1°C 45.3°F7.4°C 60% 3.4 mph S5.5 kmh S 6.0 mph9.7 kmh 29.55 in1000.7 mb 0.00 in0.0 mm 0.00 in0.0 mm 0.20 in5.1 mm
02:00 PM 60.4°F15.8°C 45.6°F7.6°C 58% 3.2 mph SSW5.1 kmh SSW 6.0 mph9.7 kmh 29.56 in1001.0 mb 0.00 in0.0 mm 0.00 in0.0 mm 0.20 in5.1 mm
02:15 PM 61.3°F16.3°C 46.0°F7.8°C 57% 2.7 mph SE4.3 kmh SE 3.8 mph6.1 kmh 29.57 in1001.4 mb 0.00 in0.0 mm 0.00 in0.0 mm 0.20 in5.1 mm
02:30 PM 60.4°F15.8°C 46.1°F7.8°C 59% 3.5 mph N5.6 kmh N 5.4 mph8.7 kmh 29.58 in1001.7 mb 0.00 in0.0 mm 0.00 in0.0 mm 0.20 in5.1 mm
02:45 PM 54.9°F12.7°C 45.6°F7.6°C 71% 2.5 mph NE4.0 kmh NE 3.8 mph6.1 kmh 29.61 in1002.7 mb 0.06 in1.5 mm 0.24 in6.1 mm 0.26 in6.6 mm
03:00 PM 52.0°F11.1°C 46.0°F7.8°C 80% 0.3 mph SW0.5 kmh SW 1.6 mph2.6 kmh 29.62 in1003.0 mb 0.07 in1.8 mm 0.01 in0.3 mm 0.27 in6.9 mm
03:15 PM 50.5°F10.3°C 45.9°F7.7°C 84% 2.0 mph N3.2 kmh N 3.1 mph5.0 kmh 29.63 in1003.4 mb 0.08 in2.0 mm 0.04 in1.0 mm 0.28 in7.1 mm
03:30 PM 50.4°F10.2°C 46.6°F8.1°C 87% 1.0 mph E1.6 kmh E 2.2 mph3.5 kmh 29.64 in1003.7 mb 0.08 in2.0 mm 0.00 in0.0 mm 0.28 in7.1 mm
03:45 PM 50.2°F10.1°C 46.5°F8.1°C 87% 0.7 mph WSW1.1 kmh WSW 1.6 mph2.6 kmh 29.65 in1004.1 mb 0.01 in0.3 mm 0.00 in0.0 mm 0.28 in7.1 mm
04:00 PM 50.0°F10.0°C 46.6°F8.1°C 88% 1.0 mph SW1.6 kmh SW 1.6 mph2.6 kmh 29.65 in1004.1 mb 0.01 in0.3 mm 0.00 in0.0 mm 0.28 in7.1 mm
04:15 PM 50.4°F10.2°C 47.5°F8.6°C 90% 1.4 mph SW2.3 kmh SW 2.2 mph3.5 kmh 29.66 in1004.4 mb 0.00 in0.0 mm 0.00 in0.0 mm 0.28 in7.1 mm
04:30 PM 51.3°F10.7°C 48.4°F9.1°C 90% 2.7 mph SW4.3 kmh SW 5.4 mph8.7 kmh 29.67 in1004.7 mb 0.00 in0.0 mm 0.00 in0.0 mm 0.28 in7.1 mm
04:45 PM 50.2°F10.1°C 45.9°F7.7°C 85% 1.9 mph S3.1 kmh S 2.2 mph3.5 kmh 29.68 in1005.1 mb 0.00 in0.0 mm 0.00 in0.0 mm 0.28 in7.1 mm
05:00 PM 49.6°F9.8°C 45.0°F7.2°C 84% 1.7 mph SE2.7 kmh SE 3.1 mph5.0 kmh 29.69 in1005.4 mb 0.00 in0.0 mm 0.00 in0.0 mm 0.28 in7.1 mm
05:15 PM 49.3°F9.6°C 44.3°F6.8°C 83% 2.3 mph WNW3.7 kmh WNW 3.8 mph6.1 kmh 29.70 in1005.8 mb 0.00 in0.0 mm 0.00 in0.0 mm 0.28 in7.1 mm
05:30 PM 48.9°F9.4°C 43.7°F6.5°C 82% 2.7 mph SW4.3 kmh SW 3.8 mph6.1 kmh 29.71 in1006.1 mb 0.00 in0.0 mm 0.00 in0.0 mm 0.28 in7.1 mm
05:45 PM 48.4°F9.1°C 43.1°F6.2°C 82% 2.1 mph W3.4 kmh W 3.8 mph6.1 kmh 29.72 in1006.4 mb 0.00 in0.0 mm 0.00 in0.0 mm 0.28 in7.1 mm
06:00 PM 48.4°F9.1°C 42.8°F6.0°C 81% 3.2 mph SW5.1 kmh SW 5.4 mph8.7 kmh 29.73 in1006.8 mb 0.00 in0.0 mm 0.00 in0.0 mm 0.28 in7.1 mm
06:15 PM 47.5°F8.6°C 42.3°F5.7°C 82% 1.9 mph S3.1 kmh S 3.1 mph5.0 kmh 29.73 in1006.8 mb 0.00 in0.0 mm 0.00 in0.0 mm 0.28 in7.1 mm
06:30 PM 47.3°F8.5°C 42.1°F5.6°C 82% 2.7 mph WSW4.3 kmh WSW 6.9 mph11.1 kmh 29.75 in1007.5 mb 0.00 in0.0 mm 0.00 in0.0 mm 0.28 in7.1 mm
07:00 PM 47.1°F8.4°C 41.9°F5.5°C 82% 2.4 mph WNW3.9 kmh WNW 4.5 mph7.2 kmh 29.77 in1008.1 mb 0.00 in0.0 mm 0.00 in0.0 mm 0.28 in7.1 mm
07:15 PM 46.4°F8.0°C 41.5°F5.3°C 83% 2.4 mph SW3.9 kmh SW 5.4 mph8.7 kmh 29.77 in1008.1 mb 0.00 in0.0 mm 0.00 in0.0 mm 0.28 in7.1 mm
07:30 PM 46.2°F7.9°C 41.7°F5.4°C 84% 2.3 mph WNW3.7 kmh WNW 3.8 mph6.1 kmh 29.77 in1008.1 mb 0.00 in0.0 mm 0.00 in0.0 mm 0.28 in7.1 mm
07:45 PM 45.5°F7.5°C 41.3°F5.2°C 85% 0.9 mph W1.4 kmh W 3.1 mph5.0 kmh 29.78 in1008.5 mb 0.00 in0.0 mm 0.00 in0.0 mm 0.28 in7.1 mm
08:00 PM 44.8°F7.1°C 40.9°F4.9°C 86% 1.4 mph NNW2.3 kmh NNW 1.6 mph2.6 kmh 29.78 in1008.5 mb 0.00 in0.0 mm 0.00 in0.0 mm 0.28 in7.1 mm
08:15 PM 44.8°F7.1°C 41.4°F5.2°C 88% 2.0 mph N3.2 kmh N 6.0 mph9.7 kmh 29.79 in1008.8 mb 0.00 in0.0 mm 0.00 in0.0 mm 0.28 in7.1 mm
08:30 PM 46.2°F7.9°C 43.5°F6.4°C 90% 3.5 mph SW5.6 kmh SW 5.4 mph8.7 kmh 29.79 in1008.8 mb 0.00 in0.0 mm 0.00 in0.0 mm 0.28 in7.1 mm
08:45 PM 46.8°F8.2°C 43.4°F6.3°C 88% 2.7 mph W4.3 kmh W 5.4 mph8.7 kmh 29.79 in1008.8 mb 0.00 in0.0 mm 0.00 in0.0 mm 0.28 in7.1 mm
09:00 PM 46.6°F8.1°C 42.9°F6.1°C 87% 2.7 mph WSW4.3 kmh WSW 4.5 mph7.2 kmh 29.80 in1009.1 mb 0.00 in0.0 mm 0.00 in0.0 mm 0.28 in7.1 mm
09:15 PM 46.2°F7.9°C 42.9°F6.1°C 88% 2.8 mph S4.5 kmh S 5.4 mph8.7 kmh 29.81 in1009.5 mb 0.00 in0.0 mm 0.00 in0.0 mm 0.28 in7.1 mm
09:45 PM 45.9°F7.7°C 41.9°F5.5°C 86% 3.1 mph SSW5.0 kmh SSW 4.5 mph7.2 kmh 29.82 in1009.8 mb 0.00 in0.0 mm 0.00 in0.0 mm 0.28 in7.1 mm
10:00 PM 45.7°F7.6°C 41.4°F5.2°C 85% 2.7 mph SW4.3 kmh SW 3.8 mph6.1 kmh 29.82 in1009.8 mb 0.00 in0.0 mm 0.00 in0.0 mm 0.28 in7.1 mm
10:15 PM 46.2°F7.9°C 42.0°F5.6°C 85% 3.3 mph SW5.3 kmh SW 6.0 mph9.7 kmh 29.81 in1009.5 mb 0.00 in0.0 mm 0.00 in0.0 mm 0.28 in7.1 mm
10:30 PM 45.7°F7.6°C 41.1°F5.1°C 84% 2.2 mph WNW3.5 kmh WNW 5.4 mph8.7 kmh 29.82 in1009.8 mb 0.00 in0.0 mm 0.00 in0.0 mm 0.28 in7.1 mm
10:45 PM 45.3°F7.4°C 40.5°F4.7°C 83% 3.2 mph W5.1 kmh W 7.6 mph12.2 kmh 29.83 in1010.2 mb 0.00 in0.0 mm 0.00 in0.0 mm 0.28 in7.1 mm
11:00 PM 44.8°F7.1°C 39.9°F4.4°C 83% 2.7 mph WSW4.3 kmh WSW 4.5 mph7.2 kmh 29.83 in1010.2 mb 0.00 in0.0 mm 0.00 in0.0 mm 0.18 in4.6 mm
11:15 PM 45.0°F7.2°C 40.4°F4.7°C 84% 3.5 mph W5.6 kmh W 6.0 mph9.7 kmh 29.83 in1010.2 mb 0.00 in0.0 mm 0.00 in0.0 mm 0.18 in4.6 mm
11:30 PM 45.1°F7.3°C 40.3°F4.6°C 83% 3.8 mph SSW6.1 kmh SSW 9.8 mph15.8 kmh 29.83 in1010.2 mb 0.00 in0.0 mm 0.00 in0.0 mm 0.18 in4.6 mm